This is the latest recevied weather packets stored in our database for station/object KN6WGU. If no packets are shown the sender has not sent any weather packets the latest 10 day(s).
| Time | Temp. | Humidity | Pressure | Rain* | Wind** | Luminosity | Snow |
|---|---|---|---|---|---|---|---|
| 1787690086 | 25° C | 66% | 1011.9 hPa | 0 mm | - | 357 W/m² | - |
| 1787689781 | 25° C | 63% | 1012.1 hPa | 0 mm | - | 225 W/m² | - |
| 1787689477 | 25° C | 63% | 1012.2 hPa | 0 mm | - | 291 W/m² | - |
| 1787689176 | 25.56° C | 63% | 1012.2 hPa | 0 mm | - | 263 W/m² | - |
| 1787688872 | 25.56° C | 61% | 1012.4 hPa | 0 mm | - | 261 W/m² | - |
| 1787688567 | 25.56° C | 62% | 1012.1 hPa | 0 mm | - | 337 W/m² | - |
| 1787688261 | 26.11° C | 61% | 1012.3 hPa | 0 mm | - | 384 W/m² | - |
| 1787687957 | 26.11° C | 63% | 1012.3 hPa | 0 mm | - | 521 W/m² | - |
| 1787687652 | 26.11° C | 60% | 1012.3 hPa | 0 mm | - | 505 W/m² | - |
| 1787687348 | 25.56° C | 63% | 1012.4 hPa | 0 mm | - | 542 W/m² | - |
| 1787687043 | 25.56° C | 64% | 1012.5 hPa | 0 mm | - | 511 W/m² | - |
| 1787686739 | 26.11° C | 64% | 1012.6 hPa | 0 mm | - | 514 W/m² | - |
| 1787686434 | 25.56° C | 62% | 1012.5 hPa | 0 mm | - | 473 W/m² | - |
| 1787686130 | 25.56° C | 63% | 1012.7 hPa | 0 mm | - | 380 W/m² | - |
| 1787685825 | 25° C | 65% | 1012.6 hPa | 0 mm | - | 513 W/m² | - |
| 1787685520 | 26.11° C | 63% | 1012.6 hPa | 0 mm | - | 366 W/m² | - |
| 1787685220 | 26.11° C | 65% | 1012.7 hPa | 0 mm | - | 442 W/m² | - |
| 1787684915 | 25.56° C | 66% | 1012.6 hPa | 0 mm | - | 449 W/m² | - |
| 1787684611 | 25.56° C | 67% | 1012.6 hPa | 0 mm | - | 434 W/m² | - |
| 1787684310 | 25.56° C | 68% | 1012.7 hPa | 0 mm | - | 527 W/m² | - |
| 1787684006 | 25.56° C | 67% | 1013 hPa | 0 mm | - | 654 W/m² | - |
| 1787683704 | 25.56° C | 65% | 1012.8 hPa | 0 mm | - | 500 W/m² | - |
| 1787683400 | 25.56° C | 66% | 1012.9 hPa | 0 mm | - | 558 W/m² | - |
| 1787683096 | 25.56° C | 66% | 1013 hPa | 0 mm | - | 598 W/m² | - |
| 1787682793 | 25.56° C | 66% | 1013 hPa | 0 mm | - | 435 W/m² | - |
* Rain latest hour (hover to see other rain measurements)
** Current wind speed in m/s (hover to see current wind gust speed)